If you wish to contribute or participate in the discussions about articles you are invited to join SKYbrary as a registered user

 Actions

Scammon Bay Airport

From SKYbrary Wiki

PACM
Airport
ICAO: PACM – IATA: SCM
Summary
Name Scammon Bay Airport
Region North America
Territory Alaska US.gif
Location , Alaska
Serving Scammon Bay
Elevation 4.267 m
14 ft
14 ft4.267 m
Type medium airport
Coordinates 61° 50' 43.00" N, 165° 34' 17.00" W
Runways
Designator Length Width Surface ROPS
04W/22W 3048 m10,000 ft
152 m498.688 ft
WATER-E /
10/28 914 m2,998.688 ft
23 m75.459 ft
GVL /


METAR
Observation PACM 230556Z AUTO 28012KT 10SM OVC009 06/05 A3001 RMK AO2 SLP159 T00610050 10089 20061 58004
Station SCAMMON BAY
Date/Time 23 May 2019 05:56:00
Wind direction 280°
Wind speed 12 kts
Lowest cloud amount overcast
Temperature 6.1°C
Dew point 5°C
Humidity 92%
QNH hPa
Weather condition n/a